sensor_id;sensor_type;location;lat;lon;timestamp;pressure;altitude;pressure_sealevel;temperature;humidity
63535;BME280;55128;50.230;18.944;2023-09-18T00:01:56;98622.47;;;15.40;100.00
63535;BME280;55128;50.230;18.944;2023-09-18T00:06:56;98622.66;;;15.37;100.00
63535;BME280;55128;50.230;18.944;2023-09-18T00:11:56;98618.56;;;15.31;100.00
63535;BME280;55128;50.230;18.944;2023-09-18T00:16:57;98617.63;;;15.32;100.00
63535;BME280;55128;50.230;18.944;2023-09-18T00:21:57;98616.19;;;15.27;100.00
63535;BME280;55128;50.230;18.944;2023-09-18T00:27:00;98608.97;;;15.14;100.00
63535;BME280;55128;50.230;18.944;2023-09-18T00:32:01;98610.59;;;15.17;100.00
63535;BME280;55128;50.230;18.944;2023-09-18T00:37:01;98612.44;;;15.02;100.00
63535;BME280;55128;50.230;18.944;2023-09-18T00:42:02;98609.56;;;15.05;100.00
63535;BME280;55128;50.230;18.944;2023-09-18T00:47:03;98613.22;;;15.04;100.00
63535;BME280;55128;50.230;18.944;2023-09-18T00:52:03;98605.78;;;14.95;100.00
63535;BME280;55128;50.230;18.944;2023-09-18T00:57:04;98609.00;;;15.00;100.00
63535;BME280;55128;50.230;18.944;2023-09-18T01:02:05;98598.50;;;14.97;100.00
63535;BME280;55128;50.230;18.944;2023-09-18T01:07:05;98598.69;;;14.94;100.00
63535;BME280;55128;50.230;18.944;2023-09-18T01:12:46;98599.28;;;14.99;100.00
63535;BME280;55128;50.230;18.944;2023-09-18T01:17:48;98596.16;;;14.92;100.00
63535;BME280;55128;50.230;18.944;2023-09-18T01:22:48;98596.69;;;14.97;100.00
63535;BME280;55128;50.230;18.944;2023-09-18T01:27:49;98596.03;;;14.94;100.00
63535;BME280;55128;50.230;18.944;2023-09-18T01:32:52;98598.69;;;14.94;100.00
63535;BME280;55128;50.230;18.944;2023-09-18T01:37:54;98605.97;;;14.92;100.00
63535;BME280;55128;50.230;18.944;2023-09-18T01:42:55;98599.31;;;14.85;100.00
63535;BME280;55128;50.230;18.944;2023-09-18T01:47:55;98604.44;;;14.88;100.00
63535;BME280;55128;50.230;18.944;2023-09-18T01:52:56;98602.44;;;14.77;100.00
63535;BME280;55128;50.230;18.944;2023-09-18T01:57:58;98601.81;;;14.73;100.00
63535;BME280;55128;50.230;18.944;2023-09-18T02:02:59;98598.34;;;14.86;100.00
63535;BME280;55128;50.230;18.944;2023-09-18T02:07:59;98596.47;;;14.73;100.00
63535;BME280;55128;50.230;18.944;2023-09-18T02:12:59;98586.53;;;14.75;100.00
63535;BME280;55128;50.230;18.944;2023-09-18T02:18:00;98588.06;;;14.65;100.00
63535;BME280;55128;50.230;18.944;2023-09-18T02:23:00;98587.47;;;14.60;100.00
63535;BME280;55128;50.230;18.944;2023-09-18T02:28:00;98583.88;;;14.61;100.00
63535;BME280;55128;50.230;18.944;2023-09-18T02:33:01;98580.34;;;14.61;100.00
63535;BME280;55128;50.230;18.944;2023-09-18T02:38:03;98572.25;;;14.62;100.00
63535;BME280;55128;50.230;18.944;2023-09-18T02:43:03;98579.38;;;14.62;100.00
63535;BME280;55128;50.230;18.944;2023-09-18T02:48:04;98578.53;;;14.61;100.00
63535;BME280;55128;50.230;18.944;2023-09-18T02:53:06;98572.25;;;14.62;100.00
63535;BME280;55128;50.230;18.944;2023-09-18T02:58:06;98570.88;;;14.55;100.00
63535;BME280;55128;50.230;18.944;2023-09-18T03:03:09;98568.22;;;14.55;100.00
63535;BME280;55128;50.230;18.944;2023-09-18T03:08:11;98567.22;;;14.56;100.00
63535;BME280;55128;50.230;18.944;2023-09-18T03:13:13;98564.66;;;14.54;100.00
63535;BME280;55128;50.230;18.944;2023-09-18T03:18:14;98555.03;;;14.52;100.00
63535;BME280;55128;50.230;18.944;2023-09-18T03:23:14;98558.22;;;14.58;100.00
63535;BME280;55128;50.230;18.944;2023-09-18T03:28:15;98543.97;;;14.58;100.00
63535;BME280;55128;50.230;18.944;2023-09-18T03:33:15;98547.63;;;14.57;100.00
63535;BME280;55128;50.230;18.944;2023-09-18T03:38:15;98545.00;;;14.55;100.00
63535;BME280;55128;50.230;18.944;2023-09-18T03:43:16;98548.53;;;14.56;100.00
63535;BME280;55128;50.230;18.944;2023-09-18T03:48:17;98545.41;;;14.49;100.00
63535;BME280;55128;50.230;18.944;2023-09-18T03:53:17;98535.75;;;14.47;100.00
63535;BME280;55128;50.230;18.944;2023-09-18T03:58:18;98535.47;;;14.51;100.00
63535;BME280;55128;50.230;18.944;2023-09-18T04:03:18;98531.56;;;14.43;100.00
63535;BME280;55128;50.230;18.944;2023-09-18T04:08:18;98529.09;;;14.39;100.00
63535;BME280;55128;50.230;18.944;2023-09-18T04:13:19;98534.72;;;14.35;100.00
63535;BME280;55128;50.230;18.944;2023-09-18T04:18:19;98535.03;;;14.30;100.00
63535;BME280;55128;50.230;18.944;2023-09-18T04:23:22;98522.81;;;14.26;100.00
63535;BME280;55128;50.230;18.944;2023-09-18T04:28:23;98533.66;;;14.37;100.00
63535;BME280;55128;50.230;18.944;2023-09-18T04:33:23;98521.19;;;14.38;100.00
63535;BME280;55128;50.230;18.944;2023-09-18T04:38:25;98521.06;;;14.39;100.00
63535;BME280;55128;50.230;18.944;2023-09-18T04:43:26;98516.03;;;14.49;100.00
63535;BME280;55128;50.230;18.944;2023-09-18T04:48:26;98510.59;;;14.51;100.00
63535;BME280;55128;50.230;18.944;2023-09-18T04:53:27;98508.66;;;14.67;100.00
63535;BME280;55128;50.230;18.944;2023-09-18T04:58:27;98504.59;;;14.89;100.00
63535;BME280;55128;50.230;18.944;2023-09-18T05:03:28;98502.97;;;15.13;100.00
63535;BME280;55128;50.230;18.944;2023-09-18T05:08:29;98505.50;;;15.82;98.12
63535;BME280;55128;50.230;18.944;2023-09-18T05:13:29;98498.66;;;16.78;95.94
63535;BME280;55128;50.230;18.944;2023-09-18T05:18:30;98500.56;;;17.72;90.83
63535;BME280;55128;50.230;18.944;2023-09-18T05:23:30;98509.19;;;18.68;84.21
63535;BME280;55128;50.230;18.944;2023-09-18T05:28:30;98499.69;;;19.39;81.83
63535;BME280;55128;50.230;18.944;2023-09-18T05:33:31;98492.53;;;20.94;73.03
63535;BME280;55128;50.230;18.944;2023-09-18T05:38:31;98493.88;;;21.48;71.23
63535;BME280;55128;50.230;18.944;2023-09-18T05:43:31;98492.94;;;22.06;70.14
63535;BME280;55128;50.230;18.944;2023-09-18T05:48:32;98497.09;;;23.03;66.23
63535;BME280;55128;50.230;18.944;2023-09-18T05:53:32;98474.47;;;24.19;60.54
63535;BME280;55128;50.230;18.944;2023-09-18T05:58:34;98482.19;;;23.79;61.37
63535;BME280;55128;50.230;18.944;2023-09-18T06:03:37;98473.16;;;25.08;56.50
63535;BME280;55128;50.230;18.944;2023-09-18T06:08:37;98480.63;;;26.29;52.96
63535;BME280;55128;50.230;18.944;2023-09-18T06:13:37;98471.28;;;27.34;50.24
63535;BME280;55128;50.230;18.944;2023-09-18T06:18:38;98467.75;;;28.39;45.25
63535;BME280;55128;50.230;18.944;2023-09-18T06:23:45;98469.00;;;28.66;44.38
63535;BME280;55128;50.230;18.944;2023-09-18T06:28:57;98481.50;;;29.27;43.64
63535;BME280;55128;50.230;18.944;2023-09-18T06:33:59;98485.13;;;29.99;40.90
63535;BME280;55128;50.230;18.944;2023-09-18T06:39:00;98485.31;;;31.02;39.02
63535;BME280;55128;50.230;18.944;2023-09-18T06:44:00;98484.53;;;31.15;38.09
63535;BME280;55128;50.230;18.944;2023-09-18T06:49:19;98480.22;;;31.81;37.33
63535;BME280;55128;50.230;18.944;2023-09-18T06:59:59;98479.31;;;32.53;35.71
63535;BME280;55128;50.230;18.944;2023-09-18T07:10:16;98467.13;;;32.88;34.69
63535;BME280;55128;50.230;18.944;2023-09-18T07:27:12;98490.63;;;34.98;30.63
63535;BME280;55128;50.230;18.944;2023-09-18T07:38:46;98469.09;;;36.86;27.65
63535;BME280;55128;50.230;18.944;2023-09-18T07:44:28;98472.63;;;37.39;26.37
63535;BME280;55128;50.230;18.944;2023-09-18T07:50:07;98472.47;;;37.16;27.59
63535;BME280;55128;50.230;18.944;2023-09-18T07:55:10;98459.34;;;38.20;25.80
63535;BME280;55128;50.230;18.944;2023-09-18T08:00:11;98462.84;;;38.94;25.36
63535;BME280;55128;50.230;18.944;2023-09-18T08:22:10;98463.56;;;39.88;23.55
63535;BME280;55128;50.230;18.944;2023-09-18T08:27:16;98463.50;;;39.82;23.21
63535;BME280;55128;50.230;18.944;2023-09-18T08:32:22;98454.06;;;41.37;21.72
63535;BME280;55128;50.230;18.944;2023-09-18T08:37:48;98447.97;;;41.76;21.44
63535;BME280;55128;50.230;18.944;2023-09-18T08:43:16;98442.81;;;40.43;21.88
63535;BME280;55128;50.230;18.944;2023-09-18T08:48:41;98440.97;;;42.25;21.09
63535;BME280;55128;50.230;18.944;2023-09-18T09:27:42;98391.69;;;40.59;23.10
63535;BME280;55128;50.230;18.944;2023-09-18T09:32:47;98385.03;;;40.13;23.35
63535;BME280;55128;50.230;18.944;2023-09-18T09:37:50;98383.78;;;41.19;23.09
63535;BME280;55128;50.230;18.944;2023-09-18T09:42:55;98383.56;;;40.00;23.47
63535;BME280;55128;50.230;18.944;2023-09-18T09:48:01;98372.13;;;40.44;23.19
63535;BME280;55128;50.230;18.944;2023-09-18T09:53:03;98362.56;;;38.90;25.49
63535;BME280;55128;50.230;18.944;2023-09-18T09:58:10;98356.53;;;37.37;27.91
63535;BME280;55128;50.230;18.944;2023-09-18T10:03:16;98354.19;;;34.08;31.06
63535;BME280;55128;50.230;18.944;2023-09-18T10:08:24;98364.13;;;33.73;32.41
63535;BME280;55128;50.230;18.944;2023-09-18T10:13:58;98352.81;;;31.88;33.58
63535;BME280;55128;50.230;18.944;2023-09-18T10:19:27;98349.03;;;31.03;34.46
63535;BME280;55128;50.230;18.944;2023-09-18T10:25:01;98344.63;;;31.15;33.79
63535;BME280;55128;50.230;18.944;2023-09-18T10:30:09;98345.91;;;30.44;34.92
63535;BME280;55128;50.230;18.944;2023-09-18T10:35:11;98339.41;;;30.03;35.58
63535;BME280;55128;50.230;18.944;2023-09-18T10:40:12;98334.97;;;30.44;35.40
63535;BME280;55128;50.230;18.944;2023-09-18T10:45:27;98319.09;;;31.08;35.54
63535;BME280;55128;50.230;18.944;2023-09-18T10:50:41;98317.28;;;30.53;35.75
63535;BME280;55128;50.230;18.944;2023-09-18T10:55:50;98321.25;;;30.44;36.30
63535;BME280;55128;50.230;18.944;2023-09-18T11:00:54;98305.75;;;30.16;36.25
63535;BME280;55128;50.230;18.944;2023-09-18T11:06:11;98303.88;;;29.75;35.98
63535;BME280;55128;50.230;18.944;2023-09-18T11:11:18;98313.44;;;29.99;36.55
63535;BME280;55128;50.230;18.944;2023-09-18T11:21:28;98297.88;;;29.30;37.00
63535;BME280;55128;50.230;18.944;2023-09-18T11:26:30;98284.91;;;29.74;36.06
63535;BME280;55128;50.230;18.944;2023-09-18T11:36:49;98282.69;;;28.78;36.98
63535;BME280;55128;50.230;18.944;2023-09-18T11:41:57;98289.06;;;29.35;36.82
63535;BME280;55128;50.230;18.944;2023-09-18T11:47:10;98279.34;;;29.04;37.35
63535;BME280;55128;50.230;18.944;2023-09-18T11:52:18;98281.16;;;28.75;36.49
63535;BME280;55128;50.230;18.944;2023-09-18T11:57:19;98267.09;;;29.00;36.87
63535;BME280;55128;50.230;18.944;2023-09-18T12:02:30;98262.59;;;28.92;36.94
63535;BME280;55128;50.230;18.944;2023-09-18T12:07:35;98247.53;;;28.75;37.89
63535;BME280;55128;50.230;18.944;2023-09-18T12:12:35;98246.97;;;28.58;37.64
63535;BME280;55128;50.230;18.944;2023-09-18T12:17:36;98242.53;;;28.78;37.73
63535;BME280;55128;50.230;18.944;2023-09-18T12:22:36;98234.53;;;27.97;38.56
63535;BME280;55128;50.230;18.944;2023-09-18T12:27:37;98219.00;;;27.98;38.20
63535;BME280;55128;50.230;18.944;2023-09-18T12:32:38;98207.44;;;28.17;38.40
63535;BME280;55128;50.230;18.944;2023-09-18T12:37:39;98206.34;;;28.76;37.82
63535;BME280;55128;50.230;18.944;2023-09-18T12:42:40;98210.75;;;28.34;38.24
63535;BME280;55128;50.230;18.944;2023-09-18T12:47:41;98205.75;;;28.38;37.58
63535;BME280;55128;50.230;18.944;2023-09-18T12:52:43;98213.50;;;28.34;36.98
63535;BME280;55128;50.230;18.944;2023-09-18T12:57:44;98217.63;;;28.66;38.67
63535;BME280;55128;50.230;18.944;2023-09-18T13:02:45;98208.03;;;28.77;36.83
63535;BME280;55128;50.230;18.944;2023-09-18T13:07:46;98214.47;;;28.69;37.54
63535;BME280;55128;50.230;18.944;2023-09-18T13:12:53;98198.50;;;28.23;38.18
63535;BME280;55128;50.230;18.944;2023-09-18T13:18:00;98202.06;;;28.24;39.12
63535;BME280;55128;50.230;18.944;2023-09-18T13:23:01;98189.63;;;28.43;39.36
63535;BME280;55128;50.230;18.944;2023-09-18T13:28:05;98181.56;;;27.91;39.74
63535;BME280;55128;50.230;18.944;2023-09-18T13:33:07;98180.59;;;27.99;40.19
63535;BME280;55128;50.230;18.944;2023-09-18T13:38:08;98170.31;;;28.01;39.29
63535;BME280;55128;50.230;18.944;2023-09-18T13:43:14;98166.75;;;28.22;39.99
63535;BME280;55128;50.230;18.944;2023-09-18T13:48:23;98156.50;;;28.03;39.63
63535;BME280;55128;50.230;18.944;2023-09-18T13:53:23;98152.84;;;28.17;38.93
63535;BME280;55128;50.230;18.944;2023-09-18T13:58:26;98147.66;;;28.01;39.57
63535;BME280;55128;50.230;18.944;2023-09-18T14:03:26;98137.72;;;27.93;40.07
63535;BME280;55128;50.230;18.944;2023-09-18T14:08:26;98133.28;;;27.92;40.75
63535;BME280;55128;50.230;18.944;2023-09-18T14:13:27;98129.53;;;27.78;41.43
63535;BME280;55128;50.230;18.944;2023-09-18T14:18:27;98127.47;;;27.80;41.16
63535;BME280;55128;50.230;18.944;2023-09-18T14:23:27;98123.38;;;27.54;41.53
63535;BME280;55128;50.230;18.944;2023-09-18T14:28:28;98122.75;;;27.23;41.83
63535;BME280;55128;50.230;18.944;2023-09-18T14:33:29;98113.56;;;26.94;42.36
63535;BME280;55128;50.230;18.944;2023-09-18T14:38:29;98119.66;;;26.66;43.05
63535;BME280;55128;50.230;18.944;2023-09-18T14:43:29;98107.34;;;26.70;43.21
63535;BME280;55128;50.230;18.944;2023-09-18T14:48:30;98103.44;;;26.50;43.92
63535;BME280;55128;50.230;18.944;2023-09-18T14:53:30;98100.72;;;26.50;44.37
63535;BME280;55128;50.230;18.944;2023-09-18T14:58:31;98094.78;;;26.46;44.54
63535;BME280;55128;50.230;18.944;2023-09-18T15:03:31;98090.66;;;26.35;44.91
63535;BME280;55128;50.230;18.944;2023-09-18T15:08:31;98084.09;;;26.07;46.37
63535;BME280;55128;50.230;18.944;2023-09-18T15:13:33;98082.28;;;25.99;46.91
63535;BME280;55128;50.230;18.944;2023-09-18T15:18:34;98071.31;;;25.84;47.54
63535;BME280;55128;50.230;18.944;2023-09-18T15:23:36;98069.31;;;25.78;47.51
63535;BME280;55128;50.230;18.944;2023-09-18T15:28:36;98067.63;;;25.54;47.93
63535;BME280;55128;50.230;18.944;2023-09-18T15:33:37;98072.06;;;25.47;48.61
63535;BME280;55128;50.230;18.944;2023-09-18T15:38:38;98064.00;;;25.38;48.66
63535;BME280;55128;50.230;18.944;2023-09-18T15:43:38;98058.91;;;25.35;48.70
63535;BME280;55128;50.230;18.944;2023-09-18T15:48:40;98058.06;;;25.35;48.84
63535;BME280;55128;50.230;18.944;2023-09-18T15:53:40;98042.16;;;25.24;49.04
63535;BME280;55128;50.230;18.944;2023-09-18T15:58:40;98052.84;;;25.17;49.18
63535;BME280;55128;50.230;18.944;2023-09-18T16:03:41;98051.91;;;25.01;48.70
63535;BME280;55128;50.230;18.944;2023-09-18T16:08:46;98054.34;;;24.96;49.25
63535;BME280;55128;50.230;18.944;2023-09-18T16:13:47;98050.63;;;24.81;50.00
63535;BME280;55128;50.230;18.944;2023-09-18T16:18:47;98047.28;;;24.71;49.83
63535;BME280;55128;50.230;18.944;2023-09-18T16:23:48;98036.13;;;24.49;50.36
63535;BME280;55128;50.230;18.944;2023-09-18T16:28:48;98036.19;;;24.24;50.16
63535;BME280;55128;50.230;18.944;2023-09-18T16:33:49;98037.38;;;24.14;50.92
63535;BME280;55128;50.230;18.944;2023-09-18T16:38:50;98039.44;;;24.03;51.14
63535;BME280;55128;50.230;18.944;2023-09-18T16:43:50;98025.19;;;23.77;51.93
63535;BME280;55128;50.230;18.944;2023-09-18T16:48:54;98022.13;;;23.72;52.21
63535;BME280;55128;50.230;18.944;2023-09-18T16:53:54;98015.50;;;23.49;52.42
63535;BME280;55128;50.230;18.944;2023-09-18T16:58:55;98011.59;;;23.36;52.69
63535;BME280;55128;50.230;18.944;2023-09-18T17:03:56;98013.75;;;23.16;53.72
63535;BME280;55128;50.230;18.944;2023-09-18T17:08:56;98007.22;;;22.92;54.54
63535;BME280;55128;50.230;18.944;2023-09-18T17:13:57;97999.88;;;22.76;54.85
63535;BME280;55128;50.230;18.944;2023-09-18T17:18:58;98001.88;;;22.66;55.18
63535;BME280;55128;50.230;18.944;2023-09-18T17:23:58;98004.72;;;22.56;55.47
63535;BME280;55128;50.230;18.944;2023-09-18T17:28:59;98007.50;;;22.38;56.17
63535;BME280;55128;50.230;18.944;2023-09-18T17:33:59;98008.50;;;22.37;56.06
63535;BME280;55128;50.230;18.944;2023-09-18T17:38:59;98014.50;;;22.23;56.54
63535;BME280;55128;50.230;18.944;2023-09-18T17:44:00;98010.03;;;22.13;56.65
63535;BME280;55128;50.230;18.944;2023-09-18T17:49:02;98014.88;;;22.02;57.53
63535;BME280;55128;50.230;18.944;2023-09-18T17:54:03;98006.47;;;21.87;57.81
63535;BME280;55128;50.230;18.944;2023-09-18T17:59:04;98011.81;;;21.79;58.45
63535;BME280;55128;50.230;18.944;2023-09-18T18:04:07;98011.06;;;21.68;58.32
63535;BME280;55128;50.230;18.944;2023-09-18T18:09:07;98015.00;;;21.56;58.51
63535;BME280;55128;50.230;18.944;2023-09-18T18:14:07;98025.06;;;21.18;62.07
63535;BME280;55128;50.230;18.944;2023-09-18T18:19:08;98027.69;;;21.10;62.13
63535;BME280;55128;50.230;18.944;2023-09-18T18:24:08;98030.34;;;20.92;62.81
63535;BME280;55128;50.230;18.944;2023-09-18T18:29:09;98036.16;;;20.59;67.29
63535;BME280;55128;50.230;18.944;2023-09-18T18:34:09;98038.81;;;20.32;70.01
63535;BME280;55128;50.230;18.944;2023-09-18T18:39:13;98042.28;;;20.14;71.22
63535;BME280;55128;50.230;18.944;2023-09-18T18:44:14;98035.34;;;20.02;70.31
63535;BME280;55128;50.230;18.944;2023-09-18T18:49:14;98022.34;;;19.88;72.52
63535;BME280;55128;50.230;18.944;2023-09-18T18:54:14;98014.50;;;19.65;73.79
63535;BME280;55128;50.230;18.944;2023-09-18T18:59:15;98013.94;;;19.52;75.10
63535;BME280;55128;50.230;18.944;2023-09-18T19:04:16;98001.50;;;19.41;74.88
63535;BME280;55128;50.230;18.944;2023-09-18T19:09:17;98000.63;;;19.31;74.51
63535;BME280;55128;50.230;18.944;2023-09-18T19:14:17;97994.69;;;19.27;76.31
63535;BME280;55128;50.230;18.944;2023-09-18T19:19:18;97987.03;;;19.13;77.20
63535;BME280;55128;50.230;18.944;2023-09-18T19:24:18;97969.44;;;18.99;77.18
63535;BME280;55128;50.230;18.944;2023-09-18T19:29:18;97965.34;;;19.04;77.81
63535;BME280;55128;50.230;18.944;2023-09-18T19:34:20;97955.03;;;18.90;78.54
63535;BME280;55128;50.230;18.944;2023-09-18T19:39:21;97958.06;;;18.66;80.02
63535;BME280;55128;50.230;18.944;2023-09-18T19:44:22;97949.16;;;18.75;79.62
63535;BME280;55128;50.230;18.944;2023-09-18T19:49:25;97953.38;;;18.58;80.30
63535;BME280;55128;50.230;18.944;2023-09-18T19:54:26;97960.09;;;18.43;81.57
63535;BME280;55128;50.230;18.944;2023-09-18T19:59:27;97954.59;;;18.44;81.13
63535;BME280;55128;50.230;18.944;2023-09-18T20:04:29;97943.09;;;18.33;81.78
63535;BME280;55128;50.230;18.944;2023-09-18T20:09:29;97946.28;;;18.17;81.67
63535;BME280;55128;50.230;18.944;2023-09-18T20:14:30;97940.28;;;18.03;83.72
63535;BME280;55128;50.230;18.944;2023-09-18T20:19:30;97942.22;;;17.92;83.90
63535;BME280;55128;50.230;18.944;2023-09-18T20:24:31;97942.94;;;17.94;84.41
63535;BME280;55128;50.230;18.944;2023-09-18T20:29:31;97937.56;;;17.94;83.89
63535;BME280;55128;50.230;18.944;2023-09-18T20:34:32;97935.72;;;17.94;84.42
63535;BME280;55128;50.230;18.944;2023-09-18T20:39:32;97922.00;;;17.87;84.36
63535;BME280;55128;50.230;18.944;2023-09-18T20:44:32;97925.13;;;17.93;84.40
63535;BME280;55128;50.230;18.944;2023-09-18T20:49:33;97922.59;;;17.91;84.11
63535;BME280;55128;50.230;18.944;2023-09-18T20:54:33;97915.53;;;18.00;83.33
63535;BME280;55128;50.230;18.944;2023-09-18T20:59:33;97910.84;;;17.92;84.41
63535;BME280;55128;50.230;18.944;2023-09-18T21:04:34;97913.13;;;17.97;83.92
63535;BME280;55128;50.230;18.944;2023-09-18T21:09:35;97906.06;;;17.96;83.11
63535;BME280;55128;50.230;18.944;2023-09-18T21:14:35;97913.94;;;17.87;83.44
63535;BME280;55128;50.230;18.944;2023-09-18T21:19:36;97906.00;;;17.86;85.04
63535;BME280;55128;50.230;18.944;2023-09-18T21:24:36;97913.69;;;17.91;84.25
63535;BME280;55128;50.230;18.944;2023-09-18T21:29:37;97913.00;;;17.98;84.48
63535;BME280;55128;50.230;18.944;2023-09-18T21:34:38;97918.69;;;18.05;84.30
63535;BME280;55128;50.230;18.944;2023-09-18T21:39:39;97907.19;;;17.93;84.65
63535;BME280;55128;50.230;18.944;2023-09-18T21:44:39;97903.81;;;18.01;84.15
63535;BME280;55128;50.230;18.944;2023-09-18T21:49:40;97901.63;;;18.16;83.15
63535;BME280;55128;50.230;18.944;2023-09-18T21:54:43;97894.53;;;18.15;83.58
63535;BME280;55128;50.230;18.944;2023-09-18T21:59:44;97892.66;;;18.05;83.83
63535;BME280;55128;50.230;18.944;2023-09-18T22:04:44;97885.16;;;17.99;83.93
63535;BME280;55128;50.230;18.944;2023-09-18T22:09:44;97878.69;;;18.12;82.87
63535;BME280;55128;50.230;18.944;2023-09-18T22:14:53;97869.13;;;18.19;82.59
63535;BME280;55128;50.230;18.944;2023-09-18T22:19:54;97871.38;;;18.23;82.03
63535;BME280;55128;50.230;18.944;2023-09-18T22:24:54;97868.44;;;17.96;83.67
63535;BME280;55128;50.230;18.944;2023-09-18T22:29:54;97860.84;;;18.01;84.05
63535;BME280;55128;50.230;18.944;2023-09-18T22:34:55;97861.56;;;18.03;84.07
63535;BME280;55128;50.230;18.944;2023-09-18T22:56:23;97839.72;;;18.37;82.02
63535;BME280;55128;50.230;18.944;2023-09-18T23:01:26;97830.94;;;18.35;81.44
63535;BME280;55128;50.230;18.944;2023-09-18T23:06:28;97832.53;;;18.47;81.12
63535;BME280;55128;50.230;18.944;2023-09-18T23:11:28;97824.88;;;18.52;80.35
63535;BME280;55128;50.230;18.944;2023-09-18T23:16:29;97827.88;;;18.49;81.70
63535;BME280;55128;50.230;18.944;2023-09-18T23:21:29;97832.66;;;18.36;83.06
63535;BME280;55128;50.230;18.944;2023-09-18T23:26:31;97823.84;;;18.34;83.27
63535;BME280;55128;50.230;18.944;2023-09-18T23:31:34;97823.84;;;18.34;84.11
63535;BME280;55128;50.230;18.944;2023-09-18T23:36:36;97834.50;;;18.45;83.09
63535;BME280;55128;50.230;18.944;2023-09-18T23:41:37;97824.59;;;18.45;83.29
63535;BME280;55128;50.230;18.944;2023-09-18T23:46:39;97821.47;;;18.50;83.23
63535;BME280;55128;50.230;18.944;2023-09-18T23:51:40;97806.94;;;18.53;83.07
63535;BME280;55128;50.230;18.944;2023-09-18T23:56:42;97816.25;;;18.58;82.82
